createdAt,value
2019-06-20T00:00:39.653Z,15.48
2019-06-20T00:03:09.988Z,14.60
2019-06-20T00:05:40.280Z,15.05
2019-06-20T00:08:10.780Z,17.00
2019-06-20T00:10:41.085Z,17.98
2019-06-20T00:13:11.342Z,18.07
2019-06-20T00:15:41.535Z,18.25
2019-06-20T00:18:11.902Z,20.43
2019-06-20T00:20:45.499Z,20.40
2019-06-20T00:23:15.751Z,19.77
2019-06-20T00:25:46.004Z,19.17
2019-06-20T00:28:16.340Z,19.37
2019-06-20T00:30:46.513Z,19.70
2019-06-20T00:33:16.749Z,18.77
2019-06-20T00:35:47.025Z,18.92
2019-06-20T00:38:17.284Z,17.73
2019-06-20T00:40:47.473Z,19.65
2019-06-20T00:43:18.437Z,19.23
2019-06-20T00:45:48.803Z,19.57
2019-06-20T00:48:19.202Z,18.57
2019-06-20T00:50:49.413Z,19.25
2019-06-20T00:53:19.736Z,18.27
2019-06-20T00:55:50.005Z,19.42
2019-06-20T00:58:20.372Z,18.07
2019-06-20T01:00:50.607Z,18.75
2019-06-20T01:03:20.865Z,18.75
2019-06-20T01:05:51.122Z,17.52
2019-06-20T01:08:21.447Z,17.65
2019-06-20T01:10:51.652Z,18.00
2019-06-20T01:13:33.038Z,16.25
2019-06-20T01:15:54.846Z,16.27
2019-06-20T01:18:25.237Z,17.27
2019-06-20T01:20:55.508Z,16.30
2019-06-20T01:23:25.753Z,16.73
2019-06-20T01:25:56.020Z,17.27
2019-06-20T01:28:26.341Z,15.93
2019-06-20T01:30:56.599Z,16.05
2019-06-20T01:33:27.756Z,16.20
2019-06-20T01:35:57.936Z,14.73
2019-06-20T01:38:28.264Z,15.35
2019-06-20T01:40:58.544Z,15.93
2019-06-20T01:43:28.798Z,15.78
2019-06-20T01:45:59.053Z,16.23
2019-06-20T01:48:29.381Z,16.87
2019-06-20T01:50:59.659Z,16.37
2019-06-20T01:53:29.966Z,15.28
2019-06-20T01:56:00.173Z,14.70
2019-06-20T01:58:30.481Z,14.15
2019-06-20T02:01:00.837Z,13.58
2019-06-20T02:03:31.189Z,13.30
2019-06-20T02:06:01.441Z,13.32
2019-06-20T02:08:31.785Z,13.65
2019-06-20T02:11:01.978Z,12.30
2019-06-20T02:13:32.293Z,11.18
2019-06-20T02:16:02.515Z,11.38
2019-06-20T02:18:32.896Z,11.45
2019-06-20T02:21:03.171Z,11.05
2019-06-20T02:23:33.410Z,11.70
2019-06-20T02:26:03.680Z,11.93
2019-06-20T02:28:35.032Z,12.85
2019-06-20T02:31:05.322Z,12.73
2019-06-20T02:33:35.630Z,12.80
2019-06-20T02:36:05.982Z,12.60
2019-06-20T02:38:36.257Z,12.23
2019-06-20T02:41:06.444Z,12.18
2019-06-20T02:43:36.748Z,12.03
2019-06-20T02:46:06.956Z,12.80
2019-06-20T02:48:37.242Z,13.15
2019-06-20T02:51:07.493Z,12.43
2019-06-20T02:53:37.823Z,13.08
2019-06-20T02:56:08.078Z,13.25
2019-06-20T02:58:38.329Z,12.55
2019-06-20T03:01:09.518Z,12.88
2019-06-20T03:03:39.964Z,11.73
2019-06-20T03:06:10.244Z,12.37
2019-06-20T03:08:40.511Z,13.62
2019-06-20T03:11:10.779Z,12.00
2019-06-20T03:13:41.171Z,12.73
2019-06-20T03:16:11.353Z,12.30
2019-06-20T03:18:41.636Z,12.20
2019-06-20T03:21:11.891Z,11.75
2019-06-20T03:23:42.224Z,11.85
2019-06-20T03:26:12.412Z,12.28
2019-06-20T03:28:42.746Z,12.20
2019-06-20T03:31:13.040Z,11.90
2019-06-20T03:33:43.361Z,11.83
2019-06-20T03:36:13.580Z,12.40
2019-06-20T03:38:43.838Z,13.08
2019-06-20T03:41:14.114Z,12.33
2019-06-20T03:43:44.443Z,12.93
2019-06-20T03:46:14.719Z,15.68
2019-06-20T03:48:46.618Z,13.90
2019-06-20T03:51:16.831Z,14.47
2019-06-20T03:53:47.212Z,14.65
2019-06-20T03:56:19.012Z,15.30
2019-06-20T03:58:49.267Z,14.03
2019-06-20T04:01:19.557Z,15.63
2019-06-20T04:03:49.885Z,16.25
2019-06-20T04:06:20.133Z,14.33
2019-06-20T04:08:50.498Z,14.38
2019-06-20T04:11:20.590Z,14.75
2019-06-20T04:13:51.053Z,15.90
2019-06-20T04:16:21.309Z,16.12
2019-06-20T04:18:51.646Z,17.48
2019-06-20T04:21:21.898Z,18.77
2019-06-20T04:23:52.236Z,19.52
2019-06-20T04:26:22.499Z,19.55
2019-06-20T04:28:52.818Z,20.62
2019-06-20T04:31:23.005Z,19.05
2019-06-20T04:33:53.344Z,19.52
2019-06-20T04:36:23.624Z,19.12
2019-06-20T04:38:53.872Z,19.67
2019-06-20T04:41:24.077Z,21.07
2019-06-20T04:43:54.399Z,22.15
2019-06-20T04:46:26.240Z,22.30
2019-06-20T04:48:56.601Z,22.00
2019-06-20T04:51:26.810Z,22.42
2019-06-20T04:53:57.137Z,22.95
2019-06-20T04:56:27.449Z,23.47
2019-06-20T04:58:57.644Z,24.90
2019-06-20T05:01:27.843Z,25.68
2019-06-20T05:03:58.112Z,25.17
2019-06-20T05:06:28.383Z,24.72
2019-06-20T05:08:58.708Z,25.55
2019-06-20T05:11:28.961Z,24.00
2019-06-20T05:13:59.315Z,23.52
2019-06-20T05:16:29.587Z,22.10
2019-06-20T05:18:59.939Z,20.50
2019-06-20T05:21:30.190Z,18.57
2019-06-20T05:24:00.548Z,16.87
2019-06-20T05:26:30.854Z,16.77
2019-06-20T05:29:01.171Z,17.20
2019-06-20T05:31:31.434Z,17.32
2019-06-20T05:34:01.752Z,16.80
2019-06-20T05:36:32.023Z,17.05
2019-06-20T05:39:02.388Z,17.25
2019-06-20T05:41:32.843Z,17.75
2019-06-20T05:44:03.174Z,19.48
2019-06-20T05:46:33.362Z,17.67
2019-06-20T05:49:03.693Z,17.42
2019-06-20T05:51:33.980Z,14.87
2019-06-20T05:54:04.505Z,16.27
2019-06-20T05:56:34.794Z,16.52
2019-06-20T05:59:06.700Z,16.75
2019-06-20T06:01:36.972Z,16.57
2019-06-20T06:04:07.234Z,16.75
2019-06-20T06:06:37.436Z,16.48
2019-06-20T06:09:08.077Z,14.50
2019-06-20T06:11:39.343Z,15.00
2019-06-20T06:14:11.183Z,14.35
2019-06-20T06:16:44.206Z,15.65
2019-06-20T06:19:14.256Z,16.30
2019-06-20T06:21:44.509Z,15.60
2019-06-20T06:24:14.781Z,14.95
2019-06-20T06:26:45.042Z,16.87
2019-06-20T06:29:15.375Z,17.95
2019-06-20T06:31:45.569Z,14.03
2019-06-20T06:34:15.903Z,12.68
2019-06-20T06:36:46.089Z,14.87
2019-06-20T06:39:16.422Z,13.50
2019-06-20T06:41:46.702Z,14.38
2019-06-20T06:44:16.947Z,16.82
2019-06-20T06:46:53.489Z,18.62
2019-06-20T06:49:19.138Z,19.32
2019-06-20T06:51:49.356Z,19.95
2019-06-20T06:54:19.694Z,18.60
2019-06-20T06:56:49.893Z,18.30
2019-06-20T06:59:20.226Z,18.48
2019-06-20T07:01:50.414Z,16.35
2019-06-20T07:04:20.870Z,15.45
2019-06-20T07:06:51.170Z,16.10
2019-06-20T07:09:22.707Z,15.70
2019-06-20T07:11:52.954Z,17.65
2019-06-20T07:14:23.241Z,17.82
2019-06-20T07:17:00.213Z,17.82
2019-06-20T07:19:25.708Z,16.95
2019-06-20T07:21:57.256Z,15.80
2019-06-20T07:24:27.565Z,14.75
2019-06-20T07:26:57.831Z,16.70
2019-06-20T07:29:28.168Z,15.20
2019-06-20T07:31:58.434Z,16.02
2019-06-20T07:34:28.748Z,15.65
2019-06-20T07:36:59.007Z,15.40
2019-06-20T07:39:29.335Z,15.65
2019-06-20T07:41:59.597Z,14.93
2019-06-20T07:44:29.917Z,13.30
2019-06-20T07:47:16.246Z,13.38
2019-06-20T07:49:32.271Z,14.00
2019-06-20T07:52:02.546Z,16.77
2019-06-20T07:54:32.859Z,14.18
2019-06-20T07:57:04.150Z,14.28
2019-06-20T07:59:37.275Z,13.03
2019-06-20T08:02:07.529Z,12.95
2019-06-20T08:04:37.893Z,14.83
2019-06-20T08:07:08.157Z,13.93
2019-06-20T08:09:44.731Z,14.73
2019-06-20T08:12:10.383Z,15.43
2019-06-20T08:14:41.783Z,14.98
2019-06-20T08:17:11.951Z,15.45
2019-06-20T08:19:42.258Z,15.90
2019-06-20T08:22:12.508Z,17.55
2019-06-20T08:24:42.760Z,17.92
2019-06-20T08:27:15.042Z,16.05
2019-06-20T08:29:45.362Z,18.52
2019-06-20T08:32:15.557Z,16.90
2019-06-20T08:34:45.896Z,15.23
2019-06-20T08:37:16.180Z,15.43
2019-06-20T08:39:46.450Z,12.00
2019-06-20T08:42:16.637Z,17.20
2019-06-20T08:44:46.897Z,17.30
2019-06-20T08:47:17.158Z,15.50
2019-06-20T08:49:47.500Z,16.60
2019-06-20T08:52:17.673Z,15.28
2019-06-20T08:54:47.994Z,13.85
2019-06-20T08:57:18.269Z,17.62
2019-06-20T08:59:48.529Z,16.25
2019-06-20T09:02:18.654Z,17.35
2019-06-20T09:04:48.981Z,13.88
2019-06-20T09:07:19.252Z,14.28
2019-06-20T09:09:49.520Z,12.30
2019-06-20T09:12:19.784Z,11.43
2019-06-20T09:14:50.136Z,13.28
2019-06-20T09:17:20.388Z,12.98
2019-06-20T09:19:51.711Z,11.08
2019-06-20T09:22:22.454Z,13.10
2019-06-20T09:24:53.688Z,12.00
2019-06-20T09:27:24.589Z,11.73
2019-06-20T09:29:56.182Z,11.80
2019-06-20T09:32:26.564Z,9.75
2019-06-20T09:34:58.703Z,10.43
2019-06-20T09:37:29.012Z,12.25
2019-06-20T09:39:59.292Z,9.43
2019-06-20T09:42:29.488Z,8.70
2019-06-20T09:44:59.804Z,6.83
2019-06-20T09:47:30.068Z,6.37
2019-06-20T09:50:00.413Z,7.70
2019-06-20T09:52:30.604Z,5.58
2019-06-20T09:55:00.951Z,6.50
2019-06-20T09:57:31.200Z,5.65
2019-06-20T10:00:09.609Z,5.05
2019-06-20T10:02:33.347Z,5.27
2019-06-20T10:05:05.673Z,4.90
2019-06-20T10:07:35.935Z,4.37
2019-06-20T10:10:11.827Z,4.40
2019-06-20T10:12:42.415Z,4.08
2019-06-20T10:15:22.456Z,3.92
2019-06-20T10:17:54.512Z,4.22
2019-06-20T10:20:25.447Z,3.50
2019-06-20T10:22:55.635Z,3.60
2019-06-20T10:25:26.163Z,3.58
2019-06-20T10:27:57.705Z,3.02
2019-06-20T10:30:28.589Z,3.08
2019-06-20T10:32:58.828Z,3.52
2019-06-20T10:35:29.184Z,3.25
2019-06-20T10:37:59.425Z,3.40
2019-06-20T10:40:29.851Z,3.30
2019-06-20T10:43:00.110Z,3.42
2019-06-20T10:45:30.540Z,3.02
2019-06-20T10:48:00.840Z,3.55
2019-06-20T10:50:31.188Z,4.17
2019-06-20T10:53:01.480Z,3.58
2019-06-20T10:55:31.714Z,3.83
2019-06-20T10:58:03.415Z,3.52
2019-06-20T11:00:33.752Z,4.42
2019-06-20T11:03:04.012Z,3.70
2019-06-20T11:05:34.249Z,3.72
2019-06-20T11:08:04.609Z,3.72
2019-06-20T11:10:35.032Z,4.28
2019-06-20T11:13:05.268Z,5.62
2019-06-20T11:15:35.636Z,6.10
2019-06-20T11:18:05.821Z,4.87
2019-06-20T11:20:36.161Z,5.92
2019-06-20T11:23:06.365Z,8.05
2019-06-20T11:25:37.197Z,8.83
2019-06-20T11:28:08.474Z,8.30
2019-06-20T11:30:52.659Z,8.35
2019-06-20T11:33:10.913Z,4.83
2019-06-20T11:35:41.826Z,7.40
2019-06-20T11:38:12.235Z,8.00
2019-06-20T11:40:43.995Z,9.90
2019-06-20T11:43:14.234Z,8.93
2019-06-20T11:45:47.219Z,13.05
2019-06-20T11:48:16.382Z,9.83
2019-06-20T11:50:46.737Z,10.85
2019-06-20T11:53:16.909Z,10.63
2019-06-20T11:55:47.244Z,13.15
2019-06-20T11:58:17.442Z,12.82
2019-06-20T12:01:02.551Z,14.93
2019-06-20T12:03:21.642Z,16.52
2019-06-20T12:05:52.084Z,14.58
2019-06-20T12:08:22.345Z,16.25
2019-06-20T12:10:52.685Z,13.78
2019-06-20T12:13:23.936Z,13.20
2019-06-20T12:15:54.292Z,15.78
2019-06-20T12:18:25.982Z,17.67
2019-06-20T12:20:57.869Z,14.28
2019-06-20T12:23:31.192Z,13.60
2019-06-20T12:26:01.365Z,14.15
2019-06-20T12:28:31.629Z,12.03
2019-06-20T12:31:01.956Z,10.03
2019-06-20T12:33:32.223Z,11.43
2019-06-20T12:36:02.548Z,10.70
2019-06-20T12:38:32.724Z,13.13
2019-06-20T12:41:03.057Z,16.77
2019-06-20T12:43:33.323Z,17.77
2019-06-20T12:46:03.641Z,16.73
2019-06-20T12:48:33.912Z,18.80
2019-06-20T12:51:04.271Z,16.40
2019-06-20T12:53:34.483Z,16.55
2019-06-20T12:56:05.792Z,12.43
2019-06-20T12:58:37.362Z,12.28
2019-06-20T13:01:07.983Z,12.07
2019-06-20T13:03:39.978Z,12.30
2019-06-20T13:06:10.218Z,12.13
2019-06-20T13:08:41.998Z,13.35
2019-06-20T13:11:12.412Z,14.73
2019-06-20T13:13:42.664Z,10.70
2019-06-20T13:16:12.906Z,8.53
2019-06-20T13:18:44.548Z,9.33
2019-06-20T13:21:14.930Z,10.17
2019-06-20T13:23:45.128Z,8.48
2019-06-20T13:26:15.436Z,7.78
2019-06-20T13:29:00.592Z,6.53
2019-06-20T13:31:17.617Z,7.10
2019-06-20T13:33:48.923Z,5.90
2019-06-20T13:36:19.217Z,4.62
2019-06-20T13:38:49.455Z,5.00
2019-06-20T13:41:19.692Z,5.87
2019-06-20T13:43:49.909Z,6.22
2019-06-20T13:46:20.201Z,5.95
2019-06-20T13:48:50.463Z,4.80
2019-06-20T13:51:20.796Z,7.70
2019-06-20T13:53:51.063Z,7.00
2019-06-20T13:56:21.385Z,7.20
2019-06-20T13:58:51.625Z,5.53
2019-06-20T14:01:21.953Z,5.17
2019-06-20T14:03:52.200Z,4.97
2019-06-20T14:06:22.543Z,5.00
2019-06-20T14:08:52.747Z,4.92
2019-06-20T14:11:24.004Z,4.67
2019-06-20T14:13:54.169Z,6.30
2019-06-20T14:16:24.448Z,5.62
2019-06-20T14:18:54.614Z,5.83
2019-06-20T14:21:24.985Z,4.40
2019-06-20T14:23:56.619Z,6.28
2019-06-20T14:26:27.070Z,6.00
2019-06-20T14:28:57.274Z,6.97
2019-06-20T14:31:27.543Z,4.75
2019-06-20T14:33:58.927Z,4.30
2019-06-20T14:36:29.131Z,5.47
2019-06-20T14:38:59.325Z,5.70
2019-06-20T14:41:29.597Z,4.70
2019-06-20T14:44:00.322Z,4.22
2019-06-20T14:46:30.617Z,4.35
2019-06-20T14:49:01.398Z,4.67
2019-06-20T14:51:31.683Z,5.20
2019-06-20T14:54:01.913Z,4.67
2019-06-20T14:56:32.235Z,3.33
2019-06-20T14:59:02.472Z,3.30
2019-06-20T15:01:32.800Z,3.42
2019-06-20T15:04:03.041Z,3.33
2019-06-20T15:06:33.296Z,3.42
2019-06-20T15:09:06.073Z,3.52
2019-06-20T15:11:37.052Z,3.90
2019-06-20T15:14:08.483Z,3.30
2019-06-20T15:16:38.812Z,2.83
2019-06-20T15:19:08.992Z,3.10
2019-06-20T15:21:39.292Z,3.10
2019-06-20T15:24:09.671Z,2.85
2019-06-20T15:26:39.845Z,2.85
2019-06-20T15:29:10.089Z,3.17
2019-06-20T15:31:43.621Z,3.10
2019-06-20T15:34:12.224Z,2.92
2019-06-20T15:36:42.527Z,3.25
2019-06-20T15:39:12.788Z,2.72
2019-06-20T15:41:44.316Z,2.70
2019-06-20T15:44:14.573Z,2.75
2019-06-20T15:46:50.078Z,3.20
2019-06-20T15:49:20.449Z,2.52
2019-06-20T15:51:50.777Z,3.12
2019-06-20T15:54:24.434Z,3.20
2019-06-20T15:56:52.926Z,3.20
2019-06-20T15:59:23.287Z,3.10
2019-06-20T16:01:53.520Z,2.87
2019-06-20T16:04:23.703Z,2.90
2019-06-20T16:06:54.057Z,4.55
2019-06-20T16:09:24.239Z,3.20
2019-06-20T16:11:54.567Z,3.20
2019-06-20T16:14:26.274Z,4.45
2019-06-20T16:16:56.605Z,2.80
2019-06-20T16:19:26.906Z,2.90
2019-06-20T16:21:57.168Z,4.05
2019-06-20T16:24:28.413Z,4.80
2019-06-20T16:26:58.701Z,5.00
2019-06-20T16:29:28.898Z,2.90
2019-06-20T16:31:59.153Z,2.10
2019-06-20T16:34:29.391Z,1.80
2019-06-20T16:37:09.715Z,1.60
2019-06-20T16:39:31.602Z,1.52
2019-06-20T16:42:01.844Z,1.57
2019-06-20T16:44:32.119Z,1.32
2019-06-20T16:47:02.460Z,1.77
2019-06-20T16:49:32.630Z,1.60
2019-06-20T16:52:02.900Z,1.60
2019-06-20T16:54:33.137Z,1.70
2019-06-20T16:57:03.405Z,1.87
2019-06-20T16:59:33.595Z,1.82
2019-06-20T17:02:03.901Z,1.45
2019-06-20T17:04:34.063Z,1.22
2019-06-20T17:07:04.417Z,1.55
2019-06-20T17:09:34.646Z,1.27
2019-06-20T17:12:04.967Z,1.80
2019-06-20T17:14:35.147Z,1.40
2019-06-20T17:17:05.488Z,1.60
2019-06-20T17:19:35.763Z,1.45
2019-06-20T17:22:06.072Z,1.50
2019-06-20T17:24:36.342Z,1.67
2019-06-20T17:27:06.683Z,1.50
2019-06-20T17:29:36.942Z,1.87
2019-06-20T17:32:07.264Z,1.60
2019-06-20T17:34:37.459Z,1.85
2019-06-20T17:37:07.692Z,1.75
2019-06-20T17:39:37.887Z,1.85
2019-06-20T17:42:08.190Z,1.70
2019-06-20T17:44:38.432Z,1.50
2019-06-20T17:47:09.552Z,1.67
2019-06-20T17:49:39.829Z,2.37
2019-06-20T17:52:11.051Z,3.33
2019-06-20T17:54:41.229Z,1.82
2019-06-20T17:57:11.496Z,1.65
2019-06-20T17:59:41.755Z,1.10
2019-06-20T18:02:12.109Z,1.50
2019-06-20T18:04:42.313Z,2.05
2019-06-20T18:07:14.144Z,1.30
2019-06-20T18:09:44.456Z,1.75
2019-06-20T18:12:16.292Z,1.40
2019-06-20T18:14:46.549Z,1.45
2019-06-20T18:17:16.872Z,1.30
2019-06-20T18:19:47.055Z,1.40
2019-06-20T18:22:17.381Z,1.98
2019-06-20T18:24:47.611Z,1.57
2019-06-20T18:27:17.936Z,1.62
2019-06-20T18:29:48.104Z,1.35
2019-06-20T18:32:18.337Z,1.57
2019-06-20T18:35:01.620Z,1.60
2019-06-20T18:37:30.998Z,1.70
2019-06-20T18:39:52.279Z,1.53
2019-06-20T18:42:22.591Z,1.77
2019-06-20T18:44:54.169Z,1.92
2019-06-20T18:47:24.420Z,1.82
2019-06-20T18:49:54.653Z,2.27
2019-06-20T18:52:24.965Z,2.00
2019-06-20T18:54:55.211Z,1.72
2019-06-20T18:57:25.533Z,1.80
2019-06-20T18:59:56.804Z,1.70
2019-06-20T19:02:27.111Z,1.60
2019-06-20T19:04:57.280Z,1.87
2019-06-20T19:07:27.592Z,1.75
2019-06-20T19:09:57.888Z,1.92
2019-06-20T19:12:28.256Z,1.80
2019-06-20T19:14:58.424Z,1.62
2019-06-20T19:17:28.724Z,1.90
2019-06-20T19:19:58.975Z,1.52
2019-06-20T19:22:29.299Z,1.50
2019-06-20T19:24:59.563Z,1.70
2019-06-20T19:27:44.973Z,1.65
2019-06-20T19:30:01.693Z,1.98
2019-06-20T19:32:31.997Z,4.83
2019-06-20T19:35:02.848Z,1.72
2019-06-20T19:37:33.338Z,1.60
2019-06-20T19:40:03.727Z,2.12
2019-06-20T19:42:33.938Z,1.80
2019-06-20T19:45:13.421Z,1.72
2019-06-20T19:47:43.744Z,1.77
2019-06-20T19:50:14.452Z,2.08
2019-06-20T19:52:44.727Z,1.98
2019-06-20T19:55:16.790Z,1.52
2019-06-20T19:57:47.132Z,1.82
2019-06-20T20:00:19.245Z,2.37
2019-06-20T20:02:49.678Z,2.90
2019-06-20T20:05:20.137Z,2.80
2019-06-20T20:07:50.528Z,2.02
2019-06-20T20:10:48.549Z,2.15
2019-06-20T20:13:19.264Z,2.27
2019-06-20T20:15:49.437Z,1.82
2019-06-20T20:18:19.763Z,1.87
2019-06-20T20:20:50.006Z,2.75
2019-06-20T20:23:20.349Z,1.95
2019-06-20T20:25:50.612Z,1.67
2019-06-20T20:28:20.920Z,2.15
2019-06-20T20:30:53.599Z,1.65
2019-06-20T20:33:23.088Z,1.82
2019-06-20T20:35:54.443Z,1.80
2019-06-20T20:38:24.763Z,1.60
2019-06-20T20:40:55.020Z,2.33
2019-06-20T20:43:25.280Z,1.57
2019-06-20T20:45:55.532Z,2.00
2019-06-20T20:48:25.765Z,1.80
2019-06-20T20:50:56.020Z,2.00
2019-06-20T20:53:26.335Z,1.75
2019-06-20T20:55:56.522Z,2.17
2019-06-20T20:58:26.841Z,1.70
2019-06-20T21:01:05.651Z,1.52
2019-06-20T21:03:35.910Z,2.08
2019-06-20T21:06:06.107Z,1.62
2019-06-20T21:08:36.424Z,2.08
2019-06-20T21:11:06.762Z,2.60
2019-06-20T21:13:37.093Z,1.82
2019-06-20T21:16:07.262Z,1.65
2019-06-20T21:18:37.588Z,2.15
2019-06-20T21:21:07.816Z,2.08
2019-06-20T21:23:38.098Z,1.42
2019-06-20T21:26:08.335Z,2.30
2019-06-20T21:28:39.644Z,1.35
2019-06-20T21:31:09.833Z,1.95
2019-06-20T21:33:40.057Z,2.00
2019-06-20T21:36:10.228Z,2.50
2019-06-20T21:38:40.545Z,1.80
2019-06-20T21:41:10.714Z,2.00
2019-06-20T21:43:40.967Z,2.27
2019-06-20T21:46:11.207Z,2.00
2019-06-20T21:48:41.531Z,2.02
2019-06-20T21:51:11.697Z,1.95
2019-06-20T21:53:41.972Z,1.82
2019-06-20T21:56:12.217Z,2.72
2019-06-20T21:58:42.469Z,2.20
2019-06-20T22:01:13.224Z,3.20
2019-06-20T22:03:43.667Z,3.45
2019-06-20T22:06:23.204Z,3.17
2019-06-20T22:08:45.749Z,2.85
2019-06-20T22:11:15.936Z,3.35
2019-06-20T22:13:49.097Z,3.02
2019-06-20T22:16:19.333Z,2.67
2019-06-20T22:18:49.655Z,3.10
2019-06-20T22:21:19.821Z,3.22
2019-06-20T22:23:50.121Z,3.62
2019-06-20T22:26:20.294Z,3.40
2019-06-20T22:28:50.537Z,2.98
2019-06-20T22:31:20.790Z,3.05
2019-06-20T22:33:51.149Z,3.12
2019-06-20T22:36:21.289Z,3.30
2019-06-20T22:38:51.608Z,3.10
2019-06-20T22:41:21.818Z,2.87
2019-06-20T22:43:52.153Z,3.42
2019-06-20T22:46:22.341Z,2.98
2019-06-20T22:48:52.591Z,3.50
2019-06-20T22:51:22.841Z,3.20
2019-06-20T22:53:53.199Z,3.10
2019-06-20T22:56:23.444Z,3.02
2019-06-20T22:58:53.692Z,3.30
2019-06-20T23:01:23.884Z,3.30
2019-06-20T23:03:55.113Z,4.22
2019-06-20T23:06:25.297Z,4.15
2019-06-20T23:08:55.543Z,2.70
2019-06-20T23:11:25.782Z,2.95
2019-06-20T23:13:56.013Z,3.52
2019-06-20T23:16:26.275Z,3.92
2019-06-20T23:18:56.513Z,4.20
2019-06-20T23:21:26.804Z,3.62
2019-06-20T23:23:57.113Z,4.03
2019-06-20T23:26:27.380Z,3.92
2019-06-20T23:29:15.481Z,3.87
2019-06-20T23:31:45.732Z,4.78
2019-06-20T23:34:16.068Z,5.05
2019-06-20T23:36:46.354Z,4.22
2019-06-20T23:39:16.662Z,4.28
2019-06-20T23:41:46.956Z,4.85
2019-06-20T23:44:17.148Z,4.62
2019-06-20T23:46:47.343Z,5.20
2019-06-20T23:49:17.505Z,4.65
2019-06-20T23:51:52.188Z,5.12
2019-06-20T23:54:22.528Z,4.65
2019-06-20T23:56:52.727Z,5.97
2019-06-20T23:59:22.977Z,5.40
